createdAt,value
2023-04-15T00:01:19.838Z,10.55
2023-04-15T00:03:48.374Z,10.60
2023-04-15T00:06:16.344Z,10.61
2023-04-15T00:08:43.823Z,10.63
2023-04-15T00:11:12.553Z,10.65
2023-04-15T00:13:40.050Z,10.66
2023-04-15T00:16:09.082Z,10.68
2023-04-15T00:18:38.463Z,10.70
2023-04-15T00:21:06.181Z,10.70
2023-04-15T00:23:33.642Z,10.70
2023-04-15T00:26:01.620Z,10.71
2023-04-15T00:28:29.532Z,10.70
2023-04-15T00:30:57.539Z,10.71
2023-04-15T00:33:25.686Z,10.71
2023-04-15T00:35:53.622Z,10.71
2023-04-15T00:38:21.216Z,10.71
2023-04-15T00:40:48.759Z,10.72
2023-04-15T00:43:16.357Z,10.73
2023-04-15T00:45:43.832Z,10.74
2023-04-15T00:48:12.516Z,10.74
2023-04-15T00:50:40.002Z,10.72
2023-04-15T00:53:07.554Z,10.70
2023-04-15T00:55:36.273Z,10.68
2023-04-15T00:58:03.853Z,10.65
2023-04-15T01:00:31.584Z,10.60
2023-04-15T01:02:59.182Z,10.55
2023-04-15T01:05:28.142Z,10.49
2023-04-15T01:07:58.364Z,10.44
2023-04-15T01:10:25.886Z,10.39
2023-04-15T01:12:53.586Z,10.35
2023-04-15T01:15:21.856Z,10.33
2023-04-15T01:17:49.998Z,10.33
2023-04-15T01:20:17.808Z,10.33
2023-04-15T01:22:45.310Z,10.34
2023-04-15T01:25:31.646Z,10.34
2023-04-15T01:27:59.482Z,10.33
2023-04-15T01:30:27.154Z,10.33
2023-04-15T01:32:55.001Z,10.32
2023-04-15T01:35:23.929Z,10.30
2023-04-15T01:37:51.615Z,10.29
2023-04-15T01:40:19.201Z,10.28
2023-04-15T01:42:47.548Z,10.28
2023-04-15T01:45:15.386Z,10.26
2023-04-15T01:47:43.592Z,10.24
2023-04-15T01:50:11.382Z,10.23
2023-04-15T01:52:38.895Z,10.23
2023-04-15T01:55:08.507Z,10.23
2023-04-15T01:57:37.181Z,10.24
2023-04-15T02:00:07.590Z,10.24
2023-04-15T02:02:36.217Z,10.25
2023-04-15T02:05:05.608Z,10.26
2023-04-15T02:07:33.239Z,10.26
2023-04-15T02:10:01.288Z,10.27
2023-04-15T02:12:28.999Z,10.28
2023-04-15T02:14:56.684Z,10.28
2023-04-15T02:17:24.208Z,10.27
2023-04-15T02:19:52.155Z,10.26
2023-04-15T02:22:19.818Z,10.26
2023-04-15T02:24:47.457Z,10.25
2023-04-15T02:27:18.473Z,10.25
2023-04-15T02:29:46.618Z,10.27
2023-04-15T02:32:14.222Z,10.27
2023-04-15T02:34:42.673Z,10.28
2023-04-15T02:37:21.235Z,10.30
2023-04-15T02:40:10.360Z,10.31
2023-04-15T02:42:39.980Z,10.33
2023-04-15T02:45:08.102Z,10.36
2023-04-15T02:47:36.131Z,10.40
2023-04-15T02:50:04.522Z,10.43
2023-04-15T02:52:32.581Z,10.46
2023-04-15T02:55:02.688Z,10.49
2023-04-15T02:57:30.258Z,10.51
2023-04-15T02:59:57.730Z,10.54
2023-04-15T03:02:25.566Z,10.56
2023-04-15T03:04:54.826Z,10.56
2023-04-15T03:07:22.305Z,10.57
2023-04-15T03:09:49.921Z,10.60
2023-04-15T03:12:18.599Z,10.61
2023-04-15T03:14:46.614Z,10.63
2023-04-15T03:17:14.129Z,10.65
2023-04-15T03:19:43.914Z,10.66
2023-04-15T03:22:11.464Z,10.66
2023-04-15T03:24:39.107Z,10.68
2023-04-15T03:27:07.993Z,10.70
2023-04-15T03:29:35.603Z,10.71
2023-04-15T03:32:03.277Z,10.70
2023-04-15T03:34:30.854Z,10.68
2023-04-15T03:36:58.403Z,10.69
2023-04-15T03:39:26.050Z,10.68
2023-04-15T03:41:53.508Z,10.67
2023-04-15T03:44:21.314Z,10.66
2023-04-15T03:46:49.185Z,10.67
2023-04-15T03:49:17.254Z,10.69
2023-04-15T03:51:45.509Z,10.72
2023-04-15T03:54:15.201Z,10.74
2023-04-15T03:56:42.742Z,10.75
2023-04-15T03:59:11.318Z,10.77
2023-04-15T04:01:38.787Z,10.79
2023-04-15T04:04:06.629Z,10.80
2023-04-15T04:06:37.497Z,10.81
2023-04-15T04:09:05.051Z,10.80
2023-04-15T04:11:33.237Z,10.80
2023-04-15T04:14:01.863Z,10.81
2023-04-15T04:16:29.427Z,10.81
2023-04-15T04:18:58.331Z,10.81
2023-04-15T04:21:26.737Z,10.80
2023-04-15T04:23:58.198Z,10.79
2023-04-15T04:26:26.411Z,10.79
2023-04-15T04:28:53.903Z,10.77
2023-04-15T04:31:21.861Z,10.76
2023-04-15T04:33:49.354Z,10.74
2023-04-15T04:36:16.937Z,10.71
2023-04-15T04:38:44.538Z,10.68
2023-04-15T04:41:12.316Z,10.67
2023-04-15T04:43:39.804Z,10.66
2023-04-15T04:46:07.829Z,10.66
2023-04-15T04:48:35.750Z,10.64
2023-04-15T04:51:04.076Z,10.64
2023-04-15T04:53:31.860Z,10.61
2023-04-15T04:55:59.467Z,10.60
2023-04-15T04:58:27.587Z,10.58
2023-04-15T05:00:56.792Z,10.55
2023-04-15T05:03:24.637Z,10.53
2023-04-15T05:05:52.316Z,10.51
2023-04-15T05:08:19.803Z,10.46
2023-04-15T05:10:47.306Z,10.43
2023-04-15T05:13:14.817Z,10.41
2023-04-15T05:15:43.440Z,10.39
2023-04-15T05:18:11.122Z,10.38
2023-04-15T05:20:39.145Z,10.39
2023-04-15T05:23:06.912Z,10.38
2023-04-15T05:25:35.131Z,10.36
2023-04-15T05:28:02.643Z,10.37
2023-04-15T05:30:30.535Z,10.36
2023-04-15T05:32:58.162Z,10.38
2023-04-15T05:35:27.225Z,10.41
2023-04-15T05:37:54.906Z,10.41
2023-04-15T05:40:22.976Z,10.42
2023-04-15T05:42:51.077Z,10.42
2023-04-15T05:45:18.768Z,10.41
2023-04-15T05:47:46.824Z,10.42
2023-04-15T05:50:14.318Z,10.42
2023-04-15T05:52:41.838Z,10.41
2023-04-15T05:55:09.806Z,10.43
2023-04-15T05:57:37.611Z,10.45
2023-04-15T06:00:05.892Z,10.47
2023-04-15T06:02:33.583Z,10.45
2023-04-15T06:05:01.472Z,10.46
2023-04-15T06:07:29.171Z,10.48
2023-04-15T06:09:56.798Z,10.47
2023-04-15T06:12:24.304Z,10.48
2023-04-15T06:14:51.739Z,10.49
2023-04-15T06:17:20.328Z,10.51
2023-04-15T06:19:47.870Z,10.51
2023-04-15T06:22:15.778Z,10.50
2023-04-15T06:24:43.486Z,10.48
2023-04-15T06:27:10.961Z,10.48
2023-04-15T06:29:38.580Z,10.45
2023-04-15T06:32:07.164Z,10.42
2023-04-15T06:34:34.682Z,10.40
2023-04-15T06:37:03.383Z,10.36
2023-04-15T06:39:37.662Z,10.32
2023-04-15T06:42:05.208Z,10.32
2023-04-15T06:44:33.897Z,10.33
2023-04-15T06:47:02.094Z,10.33
2023-04-15T06:49:29.761Z,10.32
2023-04-15T06:51:57.587Z,10.34
2023-04-15T06:54:26.534Z,10.34
2023-04-15T06:56:54.101Z,10.32
2023-04-15T06:59:21.671Z,10.32
2023-04-15T07:01:49.274Z,10.32
2023-04-15T07:04:16.979Z,10.30
2023-04-15T07:06:45.039Z,10.29
2023-04-15T07:09:12.639Z,10.28
2023-04-15T07:11:40.265Z,10.27
2023-04-15T07:14:08.348Z,10.26
2023-04-15T07:16:36.000Z,10.26
2023-04-15T07:19:04.223Z,10.27
2023-04-15T07:21:32.342Z,10.30
2023-04-15T07:23:59.905Z,10.33
2023-04-15T07:26:27.457Z,10.37
2023-04-15T07:28:55.534Z,10.40
2023-04-15T07:31:23.143Z,10.44
2023-04-15T07:33:51.130Z,10.50
2023-04-15T07:36:18.752Z,10.56
2023-04-15T07:38:46.257Z,10.62
2023-04-15T07:41:14.285Z,10.67
2023-04-15T07:43:41.900Z,10.71
2023-04-15T07:46:09.471Z,10.75
2023-04-15T07:48:37.650Z,10.77
2023-04-15T07:51:06.272Z,10.82
2023-04-15T07:53:33.936Z,10.87
2023-04-15T07:56:01.591Z,10.90
2023-04-15T07:58:29.272Z,10.94
2023-04-15T08:00:57.025Z,10.99
2023-04-15T08:03:26.157Z,11.04
2023-04-15T08:05:54.482Z,11.10
2023-04-15T08:08:22.472Z,11.18
2023-04-15T08:10:52.672Z,11.28
2023-04-15T08:13:21.020Z,11.39
2023-04-15T08:16:14.573Z,11.54
2023-04-15T08:18:43.622Z,11.74
2023-04-15T08:21:11.849Z,11.92
2023-04-15T08:23:39.859Z,12.12
2023-04-15T08:26:09.385Z,12.30
2023-04-15T08:28:39.909Z,12.48
2023-04-15T08:31:09.295Z,12.62
2023-04-15T08:33:37.049Z,12.72
2023-04-15T08:36:05.955Z,12.78
2023-04-15T08:38:34.043Z,12.85
2023-04-15T08:41:07.483Z,12.92
2023-04-15T08:43:38.676Z,13.00
2023-04-15T08:46:06.936Z,13.08
2023-04-15T08:48:38.567Z,13.16
2023-04-15T08:51:07.024Z,13.19
2023-04-15T08:53:35.566Z,13.17
2023-04-15T08:56:10.254Z,13.13
2023-04-15T08:58:38.450Z,13.02
2023-04-15T09:01:06.331Z,12.88
2023-04-15T09:03:35.654Z,12.79
2023-04-15T09:06:06.232Z,12.67
2023-04-15T09:08:36.897Z,12.57
2023-04-15T09:11:04.558Z,12.51
2023-04-15T09:13:32.082Z,12.45
2023-04-15T09:16:04.367Z,12.38
2023-04-15T09:18:34.517Z,12.32
2023-04-15T09:21:19.552Z,12.27
2023-04-15T09:24:04.093Z,12.22
2023-04-15T09:26:36.681Z,12.16
2023-04-15T09:29:11.928Z,12.08
2023-04-15T09:31:40.675Z,12.02
2023-04-15T09:34:08.705Z,12.00
2023-04-15T09:36:54.142Z,11.98
2023-04-15T09:39:21.912Z,11.99
2023-04-15T09:42:06.975Z,12.02
2023-04-15T09:44:34.577Z,12.02
2023-04-15T09:47:02.186Z,11.97
2023-04-15T09:49:30.165Z,11.95
2023-04-15T09:52:06.044Z,11.91
2023-04-15T09:54:36.281Z,11.88
2023-04-15T09:57:08.962Z,11.86
2023-04-15T09:59:36.668Z,11.84
2023-04-15T10:02:06.773Z,11.81
2023-04-15T10:04:38.395Z,11.80
2023-04-15T10:07:07.554Z,11.77
2023-04-15T10:09:39.379Z,11.79
2023-04-15T10:12:07.407Z,11.78
2023-04-15T10:14:38.764Z,11.75
2023-04-15T10:17:08.238Z,11.72
2023-04-15T10:19:37.996Z,11.69
2023-04-15T10:22:07.356Z,11.66
2023-04-15T10:24:35.316Z,11.64
2023-04-15T10:27:07.021Z,11.59
2023-04-15T10:29:34.710Z,11.54
2023-04-15T10:32:03.502Z,11.53
2023-04-15T10:34:32.405Z,11.52
2023-04-15T10:37:04.458Z,11.50
2023-04-15T10:39:40.059Z,11.53
2023-04-15T10:42:08.524Z,11.57
2023-04-15T10:44:38.773Z,11.62
2023-04-15T10:47:15.436Z,11.66
2023-04-15T10:49:45.853Z,11.73
2023-04-15T10:52:16.724Z,11.76
2023-04-15T10:54:44.917Z,11.80
2023-04-15T10:57:34.692Z,11.81
2023-04-15T11:00:17.287Z,11.83
2023-04-15T11:02:48.096Z,11.84
2023-04-15T11:05:17.728Z,11.83
2023-04-15T11:07:51.383Z,11.82
2023-04-15T11:10:20.790Z,11.80
2023-04-15T11:12:57.726Z,11.79
2023-04-15T11:15:32.122Z,11.75
2023-04-15T11:18:19.928Z,11.71
2023-04-15T11:20:53.973Z,11.71
2023-04-15T11:23:38.539Z,11.71
2023-04-15T11:26:11.849Z,11.71
2023-04-15T11:28:41.586Z,11.72
2023-04-15T11:31:20.129Z,11.74
2023-04-15T11:33:59.169Z,11.74
2023-04-15T11:36:29.568Z,11.70
2023-04-15T11:38:59.434Z,11.67
2023-04-15T11:41:27.226Z,11.65
2023-04-15T11:43:54.701Z,11.62
2023-04-15T11:46:30.850Z,11.61
2023-04-15T11:48:58.424Z,11.58
2023-04-15T11:51:25.997Z,11.54
2023-04-15T11:53:54.726Z,11.52
2023-04-15T11:56:26.055Z,11.49
2023-04-15T11:58:56.952Z,11.47
2023-04-15T12:01:39.669Z,11.47
2023-04-15T12:04:22.558Z,11.47
2023-04-15T12:06:52.875Z,11.45
2023-04-15T12:09:21.862Z,11.43
2023-04-15T12:11:57.232Z,11.42
2023-04-15T12:14:30.141Z,11.44
2023-04-15T12:17:00.210Z,11.45
2023-04-15T12:19:39.127Z,11.49
2023-04-15T12:22:11.226Z,11.51
2023-04-15T12:24:40.643Z,11.54
2023-04-15T12:27:11.346Z,11.55
2023-04-15T12:29:41.694Z,11.56
2023-04-15T12:32:12.078Z,11.58
2023-04-15T12:34:41.862Z,11.58
2023-04-15T12:37:12.062Z,11.59
2023-04-15T12:39:43.272Z,11.57
2023-04-15T12:42:11.604Z,11.53
2023-04-15T12:44:40.226Z,11.53
2023-04-15T12:47:09.554Z,11.51
2023-04-15T12:49:37.704Z,11.50
2023-04-15T12:52:05.890Z,11.52
2023-04-15T12:54:33.627Z,11.55
2023-04-15T12:57:01.268Z,11.60
2023-04-15T12:59:29.008Z,11.67
2023-04-15T13:01:57.007Z,11.75
2023-04-15T13:04:24.908Z,11.87
2023-04-15T13:06:52.479Z,11.94
2023-04-15T13:09:20.128Z,12.02
2023-04-15T13:11:48.902Z,12.05
2023-04-15T13:14:16.903Z,12.09
2023-04-15T13:16:44.479Z,12.15
2023-04-15T13:19:12.187Z,12.21
2023-04-15T13:21:39.856Z,12.24
2023-04-15T13:24:08.005Z,12.30
2023-04-15T13:26:36.304Z,12.32
2023-04-15T13:29:03.968Z,12.34
2023-04-15T13:31:31.527Z,12.34
2023-04-15T13:33:59.108Z,12.38
2023-04-15T13:36:27.258Z,12.44
2023-04-15T13:38:55.533Z,12.46
2023-04-15T13:41:23.041Z,12.45
2023-04-15T13:43:51.165Z,12.40
2023-04-15T13:46:19.050Z,12.33
2023-04-15T13:48:48.933Z,12.26
2023-04-15T13:51:16.526Z,12.18
2023-04-15T13:53:44.068Z,12.12
2023-04-15T13:56:13.031Z,12.05
2023-04-15T13:58:41.392Z,11.98
2023-04-15T14:01:09.287Z,11.93
2023-04-15T14:03:37.484Z,11.89
2023-04-15T14:06:08.503Z,11.84
2023-04-15T14:08:36.143Z,11.80
2023-04-15T14:11:03.727Z,11.78
2023-04-15T14:13:31.274Z,11.75
2023-04-15T14:15:58.998Z,11.69
2023-04-15T14:18:28.544Z,11.65
2023-04-15T14:20:56.864Z,11.61
2023-04-15T14:23:25.532Z,11.59
2023-04-15T14:25:54.410Z,11.57
2023-04-15T14:28:21.856Z,11.56
2023-04-15T14:30:50.014Z,11.57
2023-04-15T14:33:17.841Z,11.56
2023-04-15T14:35:46.180Z,11.55
2023-04-15T14:38:13.677Z,11.56
2023-04-15T14:40:41.459Z,11.58
2023-04-15T14:43:09.041Z,11.60
2023-04-15T14:45:39.505Z,11.62
2023-04-15T14:48:12.483Z,11.67
2023-04-15T14:50:40.557Z,11.74
2023-04-15T14:53:09.450Z,11.78
2023-04-15T14:55:36.991Z,11.80
2023-04-15T14:58:07.522Z,11.83
2023-04-15T15:00:39.179Z,11.88
2023-04-15T15:03:12.929Z,11.94
2023-04-15T15:05:46.448Z,12.01
2023-04-15T15:08:14.336Z,12.01
2023-04-15T15:10:48.511Z,11.98
2023-04-15T15:13:18.861Z,11.95
2023-04-15T15:15:46.603Z,11.93
2023-04-15T15:18:14.279Z,11.87
2023-04-15T15:20:42.009Z,11.82
2023-04-15T15:23:09.602Z,11.79
2023-04-15T15:25:37.250Z,11.74
2023-04-15T15:28:05.561Z,11.71
2023-04-15T15:30:33.088Z,11.68
2023-04-15T15:33:00.662Z,11.64
2023-04-15T15:35:28.215Z,11.59
2023-04-15T15:37:55.949Z,11.57
2023-04-15T15:40:23.677Z,11.55
2023-04-15T15:42:51.313Z,11.51
2023-04-15T15:45:18.975Z,11.49
2023-04-15T15:47:46.605Z,11.45
2023-04-15T15:50:14.561Z,11.41
2023-04-15T15:52:42.179Z,11.36
2023-04-15T15:55:10.023Z,11.33
2023-04-15T15:57:37.550Z,11.29
2023-04-15T16:00:12.063Z,11.23
2023-04-15T16:03:05.101Z,11.21
2023-04-15T16:05:28.099Z,11.17
2023-04-15T16:07:55.637Z,11.13
2023-04-15T16:10:23.324Z,11.11
2023-04-15T16:12:53.470Z,11.09
2023-04-15T16:15:23.879Z,11.06
2023-04-15T16:17:51.663Z,11.02
2023-04-15T16:20:19.344Z,10.98
2023-04-15T16:22:46.941Z,10.95
2023-04-15T16:25:14.457Z,10.93
2023-04-15T16:27:54.647Z,10.90
2023-04-15T16:30:27.160Z,10.86
2023-04-15T16:32:55.008Z,10.84
2023-04-15T16:35:23.890Z,10.81
2023-04-15T16:37:51.437Z,10.77
2023-04-15T16:40:20.286Z,10.75
2023-04-15T16:42:47.991Z,10.71
2023-04-15T16:45:15.745Z,10.66
2023-04-15T16:47:43.300Z,10.60
2023-04-15T16:50:11.026Z,10.57
2023-04-15T16:52:38.540Z,10.56
2023-04-15T16:55:06.825Z,10.56
2023-04-15T16:57:50.818Z,10.56
2023-04-15T17:00:22.675Z,10.55
2023-04-15T17:02:50.574Z,10.54
2023-04-15T17:05:18.586Z,10.52
2023-04-15T17:07:46.343Z,10.49
2023-04-15T17:10:13.900Z,10.47
2023-04-15T17:12:41.688Z,10.44
2023-04-15T17:15:09.825Z,10.40
2023-04-15T17:17:37.424Z,10.38
2023-04-15T17:20:06.725Z,10.35
2023-04-15T17:22:34.631Z,10.32
2023-04-15T17:25:03.134Z,10.31
2023-04-15T17:27:31.220Z,10.28
2023-04-15T17:29:58.818Z,10.26
2023-04-15T17:32:31.782Z,10.23
2023-04-15T17:35:06.424Z,10.21
2023-04-15T17:37:35.833Z,10.16
2023-04-15T17:40:05.296Z,10.13
2023-04-15T17:42:34.353Z,10.09
2023-04-15T17:45:02.337Z,10.06
2023-04-15T17:47:30.222Z,10.04
2023-04-15T17:49:58.044Z,10.01
2023-04-15T17:52:25.962Z,9.98
2023-04-15T17:54:53.692Z,9.94
2023-04-15T17:57:21.397Z,9.93
2023-04-15T17:59:49.444Z,9.92
2023-04-15T18:02:17.757Z,9.90
2023-04-15T18:04:45.940Z,9.89
2023-04-15T18:07:15.699Z,9.89
2023-04-15T18:09:44.341Z,9.89
2023-04-15T18:12:12.189Z,9.90
2023-04-15T18:14:39.968Z,9.88
2023-04-15T18:17:08.064Z,9.85
2023-04-15T18:19:36.187Z,9.81
2023-04-15T18:22:03.942Z,9.78
2023-04-15T18:24:32.116Z,9.77
2023-04-15T18:27:00.388Z,9.77
2023-04-15T18:29:28.534Z,9.76
2023-04-15T18:31:58.935Z,9.76
2023-04-15T18:34:27.382Z,9.75
2023-04-15T18:36:58.821Z,9.74
2023-04-15T18:39:27.848Z,9.73
2023-04-15T18:41:57.337Z,9.72
2023-04-15T18:44:25.750Z,9.70
2023-04-15T18:46:53.456Z,9.65
2023-04-15T18:49:21.299Z,9.63
2023-04-15T18:51:49.301Z,9.61
2023-04-15T18:54:16.962Z,9.58
2023-04-15T18:56:45.064Z,9.55
2023-04-15T18:59:29.303Z,9.53
2023-04-15T19:02:00.231Z,9.54
2023-04-15T19:04:31.153Z,9.53
2023-04-15T19:06:59.236Z,9.52
2023-04-15T19:09:28.882Z,9.51
2023-04-15T19:11:56.973Z,9.49
2023-04-15T19:14:24.886Z,9.47
2023-04-15T19:16:54.110Z,9.46
2023-04-15T19:19:21.956Z,9.45
2023-04-15T19:21:50.538Z,9.42
2023-04-15T19:24:19.622Z,9.41
2023-04-15T19:26:50.175Z,9.39
2023-04-15T19:29:18.504Z,9.37
2023-04-15T19:31:46.253Z,9.35
2023-04-15T19:34:14.073Z,9.32
2023-04-15T19:36:43.008Z,9.28
2023-04-15T19:39:11.340Z,9.26
2023-04-15T19:41:39.361Z,9.26
2023-04-15T19:44:06.972Z,9.25
2023-04-15T19:46:35.472Z,9.23
2023-04-15T19:49:03.497Z,9.21
2023-04-15T19:51:31.745Z,9.20
2023-04-15T19:53:59.633Z,9.17
2023-04-15T19:56:27.466Z,9.16
2023-04-15T19:58:55.238Z,9.16
2023-04-15T20:01:23.295Z,9.16
2023-04-15T20:03:54.976Z,9.17
2023-04-15T20:06:23.039Z,9.18
2023-04-15T20:08:51.700Z,9.19
2023-04-15T20:11:19.382Z,9.20
2023-04-15T20:13:47.032Z,9.18
2023-04-15T20:16:14.875Z,9.17
2023-04-15T20:18:42.608Z,9.17
2023-04-15T20:21:10.376Z,9.19
2023-04-15T20:23:38.767Z,9.20
2023-04-15T20:26:07.368Z,9.19
2023-04-15T20:28:34.967Z,9.18
2023-04-15T20:31:03.319Z,9.17
2023-04-15T20:33:31.413Z,9.19
2023-04-15T20:35:59.676Z,9.17
2023-04-15T20:38:27.321Z,9.16
2023-04-15T20:40:55.019Z,9.16
2023-04-15T20:43:23.021Z,9.17
2023-04-15T20:45:51.551Z,9.16
2023-04-15T20:48:19.239Z,9.15
2023-04-15T20:50:47.090Z,9.15
2023-04-15T20:53:15.484Z,9.15
2023-04-15T20:55:45.025Z,9.15
2023-04-15T20:58:13.048Z,9.15
2023-04-15T21:00:40.917Z,9.17
2023-04-15T21:03:08.851Z,9.18
2023-04-15T21:05:36.670Z,9.19
2023-04-15T21:08:04.437Z,9.20
2023-04-15T21:10:35.491Z,9.20
2023-04-15T21:13:03.199Z,9.19
2023-04-15T21:15:30.930Z,9.18
2023-04-15T21:17:58.827Z,9.17
2023-04-15T21:20:27.060Z,9.16
2023-04-15T21:22:54.784Z,9.15
2023-04-15T21:25:22.755Z,9.14
2023-04-15T21:27:50.655Z,9.14
2023-04-15T21:30:18.307Z,9.13
2023-04-15T21:32:46.013Z,9.13
2023-04-15T21:35:13.645Z,9.14
2023-04-15T21:37:41.193Z,9.15
2023-04-15T21:40:09.227Z,9.15
2023-04-15T21:42:36.949Z,9.13
2023-04-15T21:45:04.824Z,9.13
2023-04-15T21:47:32.446Z,9.13
2023-04-15T21:50:20.192Z,9.12
2023-04-15T21:52:47.787Z,9.12
2023-04-15T21:55:15.530Z,9.11
2023-04-15T21:57:43.324Z,9.11
2023-04-15T22:00:11.922Z,9.12
2023-04-15T22:02:42.576Z,9.13
2023-04-15T22:05:10.288Z,9.13
2023-04-15T22:07:37.948Z,9.12
2023-04-15T22:10:06.363Z,9.12
2023-04-15T22:12:34.018Z,9.13
2023-04-15T22:15:02.850Z,9.13
2023-04-15T22:17:30.867Z,9.13
2023-04-15T22:19:58.523Z,9.14
2023-04-15T22:22:26.809Z,9.16
2023-04-15T22:25:12.449Z,9.18
2023-04-15T22:27:40.155Z,9.18
2023-04-15T22:30:08.585Z,9.19
2023-04-15T22:32:36.595Z,9.20
2023-04-15T22:35:06.468Z,9.21
2023-04-15T22:37:34.137Z,9.22
2023-04-15T22:40:02.944Z,9.22
2023-04-15T22:42:30.727Z,9.21
2023-04-15T22:44:58.298Z,9.19
2023-04-15T22:47:25.899Z,9.16
2023-04-15T22:49:53.784Z,9.14
2023-04-15T22:52:29.854Z,9.14
2023-04-15T22:54:58.556Z,9.12
2023-04-15T22:57:27.900Z,9.11
2023-04-15T22:59:55.951Z,9.11
2023-04-15T23:02:23.867Z,9.12
2023-04-15T23:04:51.957Z,9.14
2023-04-15T23:07:19.615Z,9.14
2023-04-15T23:09:47.476Z,9.13
2023-04-15T23:12:14.983Z,9.13
2023-04-15T23:14:42.504Z,9.12
2023-04-15T23:17:10.336Z,9.13
2023-04-15T23:19:38.016Z,9.14
2023-04-15T23:22:07.453Z,9.15
2023-04-15T23:24:34.920Z,9.13
2023-04-15T23:27:02.668Z,9.12
2023-04-15T23:29:30.338Z,9.13
2023-04-15T23:31:58.229Z,9.12
2023-04-15T23:34:26.311Z,9.13
2023-04-15T23:36:53.894Z,9.12
2023-04-15T23:39:21.608Z,9.11
2023-04-15T23:41:49.357Z,9.09
2023-04-15T23:44:17.113Z,9.07
2023-04-15T23:46:44.614Z,9.06
2023-04-15T23:49:12.591Z,9.05
2023-04-15T23:51:40.811Z,9.01
2023-04-15T23:54:08.770Z,8.98
2023-04-15T23:56:36.678Z,8.94
2023-04-15T23:59:04.297Z,8.93
